sensor_id;sensor_type;location;lat;lon;timestamp;temperature;humidity
6518;DHT22;3292;48.944;9.240;2022-07-23T00:01:19;24.90;99.90
6518;DHT22;3292;48.944;9.240;2022-07-23T00:03:46;24.80;99.90
6518;DHT22;3292;48.944;9.240;2022-07-23T00:06:14;24.90;99.90
6518;DHT22;3292;48.944;9.240;2022-07-23T00:08:41;24.80;99.90
6518;DHT22;3292;48.944;9.240;2022-07-23T00:11:08;24.90;99.90
6518;DHT22;3292;48.944;9.240;2022-07-23T00:13:35;24.90;99.90
6518;DHT22;3292;48.944;9.240;2022-07-23T00:16:02;24.80;99.90
6518;DHT22;3292;48.944;9.240;2022-07-23T00:18:30;24.90;99.90
6518;DHT22;3292;48.944;9.240;2022-07-23T00:20:57;24.90;99.90
6518;DHT22;3292;48.944;9.240;2022-07-23T00:23:24;24.90;99.90
6518;DHT22;3292;48.944;9.240;2022-07-23T00:25:52;24.90;99.90
6518;DHT22;3292;48.944;9.240;2022-07-23T00:28:19;24.90;99.90
6518;DHT22;3292;48.944;9.240;2022-07-23T00:30:46;25.00;99.90
6518;DHT22;3292;48.944;9.240;2022-07-23T00:33:13;24.90;99.90
6518;DHT22;3292;48.944;9.240;2022-07-23T00:35:42;25.00;99.90
6518;DHT22;3292;48.944;9.240;2022-07-23T00:38:10;24.90;99.90
6518;DHT22;3292;48.944;9.240;2022-07-23T00:40:38;24.90;99.90
6518;DHT22;3292;48.944;9.240;2022-07-23T00:43:05;24.90;99.90
6518;DHT22;3292;48.944;9.240;2022-07-23T00:45:32;24.90;99.90
6518;DHT22;3292;48.944;9.240;2022-07-23T00:47:59;24.80;99.90
6518;DHT22;3292;48.944;9.240;2022-07-23T00:50:26;24.80;99.90
6518;DHT22;3292;48.944;9.240;2022-07-23T00:52:55;24.80;99.90
6518;DHT22;3292;48.944;9.240;2022-07-23T00:55:22;24.80;99.90
6518;DHT22;3292;48.944;9.240;2022-07-23T00:57:50;24.80;99.90
6518;DHT22;3292;48.944;9.240;2022-07-23T01:00:17;24.80;99.90
6518;DHT22;3292;48.944;9.240;2022-07-23T01:02:44;24.80;99.90
6518;DHT22;3292;48.944;9.240;2022-07-23T01:05:11;24.80;99.90
6518;DHT22;3292;48.944;9.240;2022-07-23T01:07:38;24.80;99.90
6518;DHT22;3292;48.944;9.240;2022-07-23T01:10:07;24.70;99.90
6518;DHT22;3292;48.944;9.240;2022-07-23T01:12:48;24.60;99.90
6518;DHT22;3292;48.944;9.240;2022-07-23T01:15:15;24.50;99.90
6518;DHT22;3292;48.944;9.240;2022-07-23T01:17:42;24.50;99.90
6518;DHT22;3292;48.944;9.240;2022-07-23T01:20:09;24.50;99.90
6518;DHT22;3292;48.944;9.240;2022-07-23T01:22:38;24.40;99.90
6518;DHT22;3292;48.944;9.240;2022-07-23T01:25:06;24.30;99.90
6518;DHT22;3292;48.944;9.240;2022-07-23T01:27:33;24.30;99.90
6518;DHT22;3292;48.944;9.240;2022-07-23T01:30:00;24.30;99.90
6518;DHT22;3292;48.944;9.240;2022-07-23T01:32:27;24.30;99.90
6518;DHT22;3292;48.944;9.240;2022-07-23T01:34:54;24.20;99.90
6518;DHT22;3292;48.944;9.240;2022-07-23T01:37:21;24.20;99.90
6518;DHT22;3292;48.944;9.240;2022-07-23T01:39:49;24.20;99.90
6518;DHT22;3292;48.944;9.240;2022-07-23T01:42:16;24.10;99.90
6518;DHT22;3292;48.944;9.240;2022-07-23T01:44:43;24.00;99.90
6518;DHT22;3292;48.944;9.240;2022-07-23T01:47:10;24.00;99.90
6518;DHT22;3292;48.944;9.240;2022-07-23T01:49:36;24.00;99.90
6518;DHT22;3292;48.944;9.240;2022-07-23T01:52:04;24.00;99.90
6518;DHT22;3292;48.944;9.240;2022-07-23T01:54:34;23.90;99.90
6518;DHT22;3292;48.944;9.240;2022-07-23T01:57:03;23.80;99.90
6518;DHT22;3292;48.944;9.240;2022-07-23T01:59:30;23.80;99.90
6518;DHT22;3292;48.944;9.240;2022-07-23T02:01:57;23.80;99.90
6518;DHT22;3292;48.944;9.240;2022-07-23T02:04:25;23.80;99.90
6518;DHT22;3292;48.944;9.240;2022-07-23T02:06:52;23.70;99.90
6518;DHT22;3292;48.944;9.240;2022-07-23T02:09:19;23.60;99.90
6518;DHT22;3292;48.944;9.240;2022-07-23T02:11:46;23.60;99.90
6518;DHT22;3292;48.944;9.240;2022-07-23T02:14:14;23.50;99.90
6518;DHT22;3292;48.944;9.240;2022-07-23T02:16:41;23.50;99.90
6518;DHT22;3292;48.944;9.240;2022-07-23T02:19:08;23.40;99.90
6518;DHT22;3292;48.944;9.240;2022-07-23T02:21:35;23.40;99.90
6518;DHT22;3292;48.944;9.240;2022-07-23T02:24:02;23.40;99.90
6518;DHT22;3292;48.944;9.240;2022-07-23T02:26:29;23.40;99.90
6518;DHT22;3292;48.944;9.240;2022-07-23T02:28:57;23.30;99.90
6518;DHT22;3292;48.944;9.240;2022-07-23T02:31:26;23.30;99.90
6518;DHT22;3292;48.944;9.240;2022-07-23T02:33:52;23.30;99.90
6518;DHT22;3292;48.944;9.240;2022-07-23T02:36:19;23.30;99.90
6518;DHT22;3292;48.944;9.240;2022-07-23T02:38:46;23.30;99.90
6518;DHT22;3292;48.944;9.240;2022-07-23T02:41:13;23.30;99.90
6518;DHT22;3292;48.944;9.240;2022-07-23T02:43:40;23.30;99.90
6518;DHT22;3292;48.944;9.240;2022-07-23T02:46:07;23.30;99.90
6518;DHT22;3292;48.944;9.240;2022-07-23T02:48:35;23.30;99.90
6518;DHT22;3292;48.944;9.240;2022-07-23T02:51:02;23.20;99.90
6518;DHT22;3292;48.944;9.240;2022-07-23T02:53:29;23.20;99.90
6518;DHT22;3292;48.944;9.240;2022-07-23T02:55:56;23.10;99.90
6518;DHT22;3292;48.944;9.240;2022-07-23T02:58:23;23.10;99.90
6518;DHT22;3292;48.944;9.240;2022-07-23T03:00:52;23.10;99.90
6518;DHT22;3292;48.944;9.240;2022-07-23T03:03:19;23.10;99.90
6518;DHT22;3292;48.944;9.240;2022-07-23T03:05:47;23.10;99.90
6518;DHT22;3292;48.944;9.240;2022-07-23T03:08:14;23.10;99.90
6518;DHT22;3292;48.944;9.240;2022-07-23T03:10:41;23.10;99.90
6518;DHT22;3292;48.944;9.240;2022-07-23T03:13:08;23.10;99.90
6518;DHT22;3292;48.944;9.240;2022-07-23T03:15:35;23.10;99.90
6518;DHT22;3292;48.944;9.240;2022-07-23T03:18:02;23.10;99.90
6518;DHT22;3292;48.944;9.240;2022-07-23T03:20:28;23.10;99.90
6518;DHT22;3292;48.944;9.240;2022-07-23T03:22:57;23.00;99.90
6518;DHT22;3292;48.944;9.240;2022-07-23T03:25:23;22.90;99.90
6518;DHT22;3292;48.944;9.240;2022-07-23T03:27:50;22.90;99.90
6518;DHT22;3292;48.944;9.240;2022-07-23T03:30:17;22.90;99.90
6518;DHT22;3292;48.944;9.240;2022-07-23T03:32:44;22.80;99.90
6518;DHT22;3292;48.944;9.240;2022-07-23T03:35:11;22.80;99.90
6518;DHT22;3292;48.944;9.240;2022-07-23T03:37:38;22.70;99.90
6518;DHT22;3292;48.944;9.240;2022-07-23T03:40:07;22.70;99.90
6518;DHT22;3292;48.944;9.240;2022-07-23T03:42:34;22.70;99.90
6518;DHT22;3292;48.944;9.240;2022-07-23T03:45:03;22.60;99.90
6518;DHT22;3292;48.944;9.240;2022-07-23T03:47:30;22.60;99.90
6518;DHT22;3292;48.944;9.240;2022-07-23T03:49:57;22.60;99.90
6518;DHT22;3292;48.944;9.240;2022-07-23T03:52:24;22.50;99.90
6518;DHT22;3292;48.944;9.240;2022-07-23T03:54:50;22.50;99.90
6518;DHT22;3292;48.944;9.240;2022-07-23T03:57:18;22.40;99.90
6518;DHT22;3292;48.944;9.240;2022-07-23T03:59:45;22.40;99.90
6518;DHT22;3292;48.944;9.240;2022-07-23T04:02:12;22.40;99.90
6518;DHT22;3292;48.944;9.240;2022-07-23T04:04:39;22.30;99.90
6518;DHT22;3292;48.944;9.240;2022-07-23T04:07:06;22.30;99.90
6518;DHT22;3292;48.944;9.240;2022-07-23T04:09:33;22.30;99.90
6518;DHT22;3292;48.944;9.240;2022-07-23T04:12:00;22.30;99.90
6518;DHT22;3292;48.944;9.240;2022-07-23T04:14:29;22.30;99.90
6518;DHT22;3292;48.944;9.240;2022-07-23T04:16:55;22.30;99.90
6518;DHT22;3292;48.944;9.240;2022-07-23T04:19:22;22.30;99.90
6518;DHT22;3292;48.944;9.240;2022-07-23T04:21:49;22.30;99.90
6518;DHT22;3292;48.944;9.240;2022-07-23T04:24:16;22.30;99.90
6518;DHT22;3292;48.944;9.240;2022-07-23T04:26:43;22.30;99.90
6518;DHT22;3292;48.944;9.240;2022-07-23T04:29:10;22.30;99.90
6518;DHT22;3292;48.944;9.240;2022-07-23T04:31:38;22.30;99.90
6518;DHT22;3292;48.944;9.240;2022-07-23T04:34:05;22.30;99.90
6518;DHT22;3292;48.944;9.240;2022-07-23T04:36:32;22.40;99.90
6518;DHT22;3292;48.944;9.240;2022-07-23T04:38:59;22.50;99.90
6518;DHT22;3292;48.944;9.240;2022-07-23T04:41:26;22.50;99.90
6518;DHT22;3292;48.944;9.240;2022-07-23T04:43:52;22.50;99.90
6518;DHT22;3292;48.944;9.240;2022-07-23T04:46:19;22.60;99.90
6518;DHT22;3292;48.944;9.240;2022-07-23T04:48:47;22.60;99.90
6518;DHT22;3292;48.944;9.240;2022-07-23T04:51:14;22.60;99.90
6518;DHT22;3292;48.944;9.240;2022-07-23T04:53:41;22.60;99.90
6518;DHT22;3292;48.944;9.240;2022-07-23T04:56:08;22.60;99.90
6518;DHT22;3292;48.944;9.240;2022-07-23T04:58:35;22.70;99.90
6518;DHT22;3292;48.944;9.240;2022-07-23T05:01:02;22.80;99.90
6518;DHT22;3292;48.944;9.240;2022-07-23T05:03:29;22.80;99.90
6518;DHT22;3292;48.944;9.240;2022-07-23T05:05:57;22.80;99.90
6518;DHT22;3292;48.944;9.240;2022-07-23T05:08:24;22.80;99.90
6518;DHT22;3292;48.944;9.240;2022-07-23T05:10:51;22.80;99.90
6518;DHT22;3292;48.944;9.240;2022-07-23T05:13:18;22.90;99.90
6518;DHT22;3292;48.944;9.240;2022-07-23T05:15:45;22.80;99.90
6518;DHT22;3292;48.944;9.240;2022-07-23T05:18:12;22.80;99.90
6518;DHT22;3292;48.944;9.240;2022-07-23T05:20:39;22.90;99.90
6518;DHT22;3292;48.944;9.240;2022-07-23T05:23:07;22.90;99.90
6518;DHT22;3292;48.944;9.240;2022-07-23T05:25:35;23.00;99.90
6518;DHT22;3292;48.944;9.240;2022-07-23T05:28:02;23.00;99.90
6518;DHT22;3292;48.944;9.240;2022-07-23T05:30:29;23.10;99.90
6518;DHT22;3292;48.944;9.240;2022-07-23T05:32:56;23.20;99.90
6518;DHT22;3292;48.944;9.240;2022-07-23T05:35:23;23.30;99.90
6518;DHT22;3292;48.944;9.240;2022-07-23T05:37:50;23.20;99.90
6518;DHT22;3292;48.944;9.240;2022-07-23T05:40:19;23.20;99.90
6518;DHT22;3292;48.944;9.240;2022-07-23T05:42:46;23.10;99.90
6518;DHT22;3292;48.944;9.240;2022-07-23T05:45:13;22.90;99.90
6518;DHT22;3292;48.944;9.240;2022-07-23T05:47:41;22.80;99.90
6518;DHT22;3292;48.944;9.240;2022-07-23T05:50:09;22.70;99.90
6518;DHT22;3292;48.944;9.240;2022-07-23T05:52:36;22.50;99.90
6518;DHT22;3292;48.944;9.240;2022-07-23T05:55:03;22.40;99.90
6518;DHT22;3292;48.944;9.240;2022-07-23T05:57:31;22.30;99.90
6518;DHT22;3292;48.944;9.240;2022-07-23T05:59:58;22.30;99.90
6518;DHT22;3292;48.944;9.240;2022-07-23T06:02:25;22.20;99.90
6518;DHT22;3292;48.944;9.240;2022-07-23T06:04:52;22.10;99.90
6518;DHT22;3292;48.944;9.240;2022-07-23T06:07:19;22.00;99.90
6518;DHT22;3292;48.944;9.240;2022-07-23T06:09:45;21.90;99.90
6518;DHT22;3292;48.944;9.240;2022-07-23T06:12:14;21.80;99.90
6518;DHT22;3292;48.944;9.240;2022-07-23T06:14:43;21.80;99.90
6518;DHT22;3292;48.944;9.240;2022-07-23T06:17:10;21.80;99.90
6518;DHT22;3292;48.944;9.240;2022-07-23T06:19:36;21.80;99.90
6518;DHT22;3292;48.944;9.240;2022-07-23T06:22:03;21.80;99.90
6518;DHT22;3292;48.944;9.240;2022-07-23T06:24:30;21.80;99.90
6518;DHT22;3292;48.944;9.240;2022-07-23T06:26:57;21.80;99.90
6518;DHT22;3292;48.944;9.240;2022-07-23T06:29:24;21.80;99.90
6518;DHT22;3292;48.944;9.240;2022-07-23T06:31:52;21.80;99.90
6518;DHT22;3292;48.944;9.240;2022-07-23T06:34:19;21.80;99.90
6518;DHT22;3292;48.944;9.240;2022-07-23T06:36:46;21.80;99.90
6518;DHT22;3292;48.944;9.240;2022-07-23T06:39:13;21.80;99.90
6518;DHT22;3292;48.944;9.240;2022-07-23T06:41:40;21.70;99.90
6518;DHT22;3292;48.944;9.240;2022-07-23T06:44:07;21.80;99.90
6518;DHT22;3292;48.944;9.240;2022-07-23T06:46:34;21.80;99.90
6518;DHT22;3292;48.944;9.240;2022-07-23T06:49:02;22.00;99.90
6518;DHT22;3292;48.944;9.240;2022-07-23T06:51:30;22.20;99.90
6518;DHT22;3292;48.944;9.240;2022-07-23T06:53:57;22.30;99.90
6518;DHT22;3292;48.944;9.240;2022-07-23T06:56:24;22.30;99.90
6518;DHT22;3292;48.944;9.240;2022-07-23T06:58:51;22.10;99.90
6518;DHT22;3292;48.944;9.240;2022-07-23T07:01:17;22.10;99.90
6518;DHT22;3292;48.944;9.240;2022-07-23T07:03:44;21.90;99.90
6518;DHT22;3292;48.944;9.240;2022-07-23T07:06:13;21.70;99.90
6518;DHT22;3292;48.944;9.240;2022-07-23T07:08:40;21.60;99.90
6518;DHT22;3292;48.944;9.240;2022-07-23T07:11:08;21.50;99.90
6518;DHT22;3292;48.944;9.240;2022-07-23T07:13:35;21.40;99.90
6518;DHT22;3292;48.944;9.240;2022-07-23T07:16:02;21.30;99.90
6518;DHT22;3292;48.944;9.240;2022-07-23T07:18:29;21.00;99.90
6518;DHT22;3292;48.944;9.240;2022-07-23T07:20:56;20.90;99.90
6518;DHT22;3292;48.944;9.240;2022-07-23T07:23:25;20.60;99.90
6518;DHT22;3292;48.944;9.240;2022-07-23T07:25:52;20.40;99.90
6518;DHT22;3292;48.944;9.240;2022-07-23T07:28:18;20.30;99.90
6518;DHT22;3292;48.944;9.240;2022-07-23T07:30:45;20.30;99.90
6518;DHT22;3292;48.944;9.240;2022-07-23T07:33:12;20.20;99.90
6518;DHT22;3292;48.944;9.240;2022-07-23T07:35:39;20.30;99.90
6518;DHT22;3292;48.944;9.240;2022-07-23T07:38:06;20.30;99.90
6518;DHT22;3292;48.944;9.240;2022-07-23T07:40:34;20.40;99.90
6518;DHT22;3292;48.944;9.240;2022-07-23T07:43:01;20.40;99.90
6518;DHT22;3292;48.944;9.240;2022-07-23T07:45:29;20.40;99.90
6518;DHT22;3292;48.944;9.240;2022-07-23T07:47:55;20.50;99.90
6518;DHT22;3292;48.944;9.240;2022-07-23T07:50:23;20.70;99.90
6518;DHT22;3292;48.944;9.240;2022-07-23T07:52:50;20.90;99.90
6518;DHT22;3292;48.944;9.240;2022-07-23T07:55:16;21.00;99.90
6518;DHT22;3292;48.944;9.240;2022-07-23T07:57:45;20.90;99.90
6518;DHT22;3292;48.944;9.240;2022-07-23T08:00:12;21.10;99.90
6518;DHT22;3292;48.944;9.240;2022-07-23T08:02:41;21.50;99.90
6518;DHT22;3292;48.944;9.240;2022-07-23T08:05:08;21.60;99.90
6518;DHT22;3292;48.944;9.240;2022-07-23T08:07:35;21.60;99.90
6518;DHT22;3292;48.944;9.240;2022-07-23T08:10:03;21.60;99.90
6518;DHT22;3292;48.944;9.240;2022-07-23T08:12:38;21.50;99.90
6518;DHT22;3292;48.944;9.240;2022-07-23T08:15:08;21.40;99.90
6518;DHT22;3292;48.944;9.240;2022-07-23T08:17:35;21.20;99.90
6518;DHT22;3292;48.944;9.240;2022-07-23T08:20:02;21.10;99.90
6518;DHT22;3292;48.944;9.240;2022-07-23T08:22:42;21.00;99.90
6518;DHT22;3292;48.944;9.240;2022-07-23T08:25:09;20.90;99.90
6518;DHT22;3292;48.944;9.240;2022-07-23T08:27:36;20.90;99.90
6518;DHT22;3292;48.944;9.240;2022-07-23T08:30:06;20.90;99.90
6518;DHT22;3292;48.944;9.240;2022-07-23T08:32:33;20.60;99.90
6518;DHT22;3292;48.944;9.240;2022-07-23T08:35:00;20.70;99.90
6518;DHT22;3292;48.944;9.240;2022-07-23T08:37:26;20.60;99.90
6518;DHT22;3292;48.944;9.240;2022-07-23T08:39:53;20.60;99.90
6518;DHT22;3292;48.944;9.240;2022-07-23T08:42:22;20.60;99.90
6518;DHT22;3292;48.944;9.240;2022-07-23T08:44:49;20.70;99.90
6518;DHT22;3292;48.944;9.240;2022-07-23T08:47:19;20.90;99.90
6518;DHT22;3292;48.944;9.240;2022-07-23T08:49:46;21.20;99.90
6518;DHT22;3292;48.944;9.240;2022-07-23T08:52:23;21.30;99.90
6518;DHT22;3292;48.944;9.240;2022-07-23T08:54:51;21.40;99.90
6518;DHT22;3292;48.944;9.240;2022-07-23T08:57:19;21.60;99.90
6518;DHT22;3292;48.944;9.240;2022-07-23T08:59:46;21.90;99.90
6518;DHT22;3292;48.944;9.240;2022-07-23T09:02:18;22.20;99.90
6518;DHT22;3292;48.944;9.240;2022-07-23T09:04:45;22.40;99.90
6518;DHT22;3292;48.944;9.240;2022-07-23T09:07:13;22.60;99.90
6518;DHT22;3292;48.944;9.240;2022-07-23T09:09:40;22.90;99.90
6518;DHT22;3292;48.944;9.240;2022-07-23T09:12:10;23.30;99.90
6518;DHT22;3292;48.944;9.240;2022-07-23T09:14:42;23.80;99.90
6518;DHT22;3292;48.944;9.240;2022-07-23T09:17:16;24.30;99.90
6518;DHT22;3292;48.944;9.240;2022-07-23T09:19:45;24.80;99.90
6518;DHT22;3292;48.944;9.240;2022-07-23T09:22:20;24.90;99.90
6518;DHT22;3292;48.944;9.240;2022-07-23T09:25:09;25.30;99.90
6518;DHT22;3292;48.944;9.240;2022-07-23T09:27:52;25.60;99.90
6518;DHT22;3292;48.944;9.240;2022-07-23T09:30:32;26.00;99.90
6518;DHT22;3292;48.944;9.240;2022-07-23T09:33:06;26.10;99.90
6518;DHT22;3292;48.944;9.240;2022-07-23T09:35:51;26.30;99.90
6518;DHT22;3292;48.944;9.240;2022-07-23T09:38:19;26.20;99.90
6518;DHT22;3292;48.944;9.240;2022-07-23T09:41:07;25.90;99.90
6518;DHT22;3292;48.944;9.240;2022-07-23T09:43:35;25.90;99.90
6518;DHT22;3292;48.944;9.240;2022-07-23T09:46:19;26.20;99.90
6518;DHT22;3292;48.944;9.240;2022-07-23T09:48:47;26.70;99.90
6518;DHT22;3292;48.944;9.240;2022-07-23T09:51:16;26.50;99.90
6518;DHT22;3292;48.944;9.240;2022-07-23T09:53:45;26.80;99.90
6518;DHT22;3292;48.944;9.240;2022-07-23T09:56:14;26.70;99.90
6518;DHT22;3292;48.944;9.240;2022-07-23T09:58:44;26.70;99.90
6518;DHT22;3292;48.944;9.240;2022-07-23T10:01:18;26.60;99.90
6518;DHT22;3292;48.944;9.240;2022-07-23T10:03:53;26.60;99.90
6518;DHT22;3292;48.944;9.240;2022-07-23T10:06:26;26.70;99.90
6518;DHT22;3292;48.944;9.240;2022-07-23T10:08:58;26.70;99.90
6518;DHT22;3292;48.944;9.240;2022-07-23T10:11:29;26.70;99.90
6518;DHT22;3292;48.944;9.240;2022-07-23T10:13:57;26.80;99.90
6518;DHT22;3292;48.944;9.240;2022-07-23T10:16:29;26.90;99.90
6518;DHT22;3292;48.944;9.240;2022-07-23T10:19:06;27.20;99.90
6518;DHT22;3292;48.944;9.240;2022-07-23T10:21:40;27.40;99.90
6518;DHT22;3292;48.944;9.240;2022-07-23T10:24:38;27.70;99.90
6518;DHT22;3292;48.944;9.240;2022-07-23T10:27:34;27.90;99.90
6518;DHT22;3292;48.944;9.240;2022-07-23T10:30:10;27.90;99.90
6518;DHT22;3292;48.944;9.240;2022-07-23T10:32:52;28.10;99.90
6518;DHT22;3292;48.944;9.240;2022-07-23T10:35:29;28.30;99.90
6518;DHT22;3292;48.944;9.240;2022-07-23T10:38:13;28.50;99.90
6518;DHT22;3292;48.944;9.240;2022-07-23T10:40:54;28.60;99.90
6518;DHT22;3292;48.944;9.240;2022-07-23T10:43:30;28.50;99.90
6518;DHT22;3292;48.944;9.240;2022-07-23T10:46:23;28.50;99.90
6518;DHT22;3292;48.944;9.240;2022-07-23T10:49:23;28.90;99.90
6518;DHT22;3292;48.944;9.240;2022-07-23T10:52:31;29.10;99.90
6518;DHT22;3292;48.944;9.240;2022-07-23T10:58:46;28.80;99.90
6518;DHT22;3292;48.944;9.240;2022-07-23T11:01:43;29.20;99.90
6518;DHT22;3292;48.944;9.240;2022-07-23T11:04:16;28.80;99.90
6518;DHT22;3292;48.944;9.240;2022-07-23T11:07:08;28.90;99.90
6518;DHT22;3292;48.944;9.240;2022-07-23T11:09:44;29.20;99.90
6518;DHT22;3292;48.944;9.240;2022-07-23T11:12:43;29.40;99.90
6518;DHT22;3292;48.944;9.240;2022-07-23T11:15:19;29.60;99.90
6518;DHT22;3292;48.944;9.240;2022-07-23T11:18:04;29.60;99.90
6518;DHT22;3292;48.944;9.240;2022-07-23T11:20:57;29.20;99.90
6518;DHT22;3292;48.944;9.240;2022-07-23T11:24:06;29.20;99.90
6518;DHT22;3292;48.944;9.240;2022-07-23T11:27:01;29.30;99.90
6518;DHT22;3292;48.944;9.240;2022-07-23T11:29:41;29.30;99.90
6518;DHT22;3292;48.944;9.240;2022-07-23T11:35:23;29.60;99.90
6518;DHT22;3292;48.944;9.240;2022-07-23T11:37:53;29.70;99.90
6518;DHT22;3292;48.944;9.240;2022-07-23T11:40:27;29.60;99.90
6518;DHT22;3292;48.944;9.240;2022-07-23T11:42:57;29.70;99.90
6518;DHT22;3292;48.944;9.240;2022-07-23T11:45:33;29.50;99.90
6518;DHT22;3292;48.944;9.240;2022-07-23T11:48:08;29.30;99.90
6518;DHT22;3292;48.944;9.240;2022-07-23T11:50:42;29.30;99.90
6518;DHT22;3292;48.944;9.240;2022-07-23T11:53:09;29.50;99.90
6518;DHT22;3292;48.944;9.240;2022-07-23T11:55:39;29.80;99.90
6518;DHT22;3292;48.944;9.240;2022-07-23T11:58:13;30.10;99.90
6518;DHT22;3292;48.944;9.240;2022-07-23T12:00:43;30.30;99.90
6518;DHT22;3292;48.944;9.240;2022-07-23T12:03:16;30.40;99.90
6518;DHT22;3292;48.944;9.240;2022-07-23T12:05:55;30.40;99.90
6518;DHT22;3292;48.944;9.240;2022-07-23T12:08:23;30.40;99.90
6518;DHT22;3292;48.944;9.240;2022-07-23T12:10:58;30.30;99.90
6518;DHT22;3292;48.944;9.240;2022-07-23T12:13:25;30.40;99.90
6518;DHT22;3292;48.944;9.240;2022-07-23T12:15:57;30.50;99.90
6518;DHT22;3292;48.944;9.240;2022-07-23T12:18:26;30.60;99.90
6518;DHT22;3292;48.944;9.240;2022-07-23T12:20:55;30.50;99.90
6518;DHT22;3292;48.944;9.240;2022-07-23T12:23:26;30.60;99.90
6518;DHT22;3292;48.944;9.240;2022-07-23T12:26:02;30.80;99.90
6518;DHT22;3292;48.944;9.240;2022-07-23T12:28:38;30.90;99.90
6518;DHT22;3292;48.944;9.240;2022-07-23T12:31:14;30.80;99.90
6518;DHT22;3292;48.944;9.240;2022-07-23T12:33:46;30.70;99.90
6518;DHT22;3292;48.944;9.240;2022-07-23T12:36:16;30.50;99.90
6518;DHT22;3292;48.944;9.240;2022-07-23T12:38:47;30.60;99.90
6518;DHT22;3292;48.944;9.240;2022-07-23T12:41:21;30.70;99.90
6518;DHT22;3292;48.944;9.240;2022-07-23T12:43:49;30.60;99.90
6518;DHT22;3292;48.944;9.240;2022-07-23T12:46:22;30.50;99.90
6518;DHT22;3292;48.944;9.240;2022-07-23T12:48:53;30.30;99.90
6518;DHT22;3292;48.944;9.240;2022-07-23T12:51:29;30.20;99.90
6518;DHT22;3292;48.944;9.240;2022-07-23T12:56:53;30.30;99.20
6518;DHT22;3292;48.944;9.240;2022-07-23T12:59:23;30.40;99.90
6518;DHT22;3292;48.944;9.240;2022-07-23T13:02:10;30.60;99.90
6518;DHT22;3292;48.944;9.240;2022-07-23T13:04:45;30.70;99.90
6518;DHT22;3292;48.944;9.240;2022-07-23T13:07:36;30.80;98.50
6518;DHT22;3292;48.944;9.240;2022-07-23T13:10:23;30.40;98.30
6518;DHT22;3292;48.944;9.240;2022-07-23T13:12:50;30.30;99.30
6518;DHT22;3292;48.944;9.240;2022-07-23T13:15:30;30.30;99.40
6518;DHT22;3292;48.944;9.240;2022-07-23T13:18:07;30.30;99.60
6518;DHT22;3292;48.944;9.240;2022-07-23T13:20:52;30.30;99.40
6518;DHT22;3292;48.944;9.240;2022-07-23T13:23:38;30.30;99.90
6518;DHT22;3292;48.944;9.240;2022-07-23T13:26:19;30.40;99.90
6518;DHT22;3292;48.944;9.240;2022-07-23T13:28:59;30.50;99.90
6518;DHT22;3292;48.944;9.240;2022-07-23T13:31:36;30.60;99.90
6518;DHT22;3292;48.944;9.240;2022-07-23T13:34:06;30.50;99.90
6518;DHT22;3292;48.944;9.240;2022-07-23T13:36:33;30.50;99.90
6518;DHT22;3292;48.944;9.240;2022-07-23T13:39:00;30.60;99.90
6518;DHT22;3292;48.944;9.240;2022-07-23T13:41:27;30.70;99.90
6518;DHT22;3292;48.944;9.240;2022-07-23T13:43:54;30.60;99.90
6518;DHT22;3292;48.944;9.240;2022-07-23T13:46:23;30.60;99.90
6518;DHT22;3292;48.944;9.240;2022-07-23T13:49:00;30.40;99.10
6518;DHT22;3292;48.944;9.240;2022-07-23T13:51:57;30.50;99.90
6518;DHT22;3292;48.944;9.240;2022-07-23T13:54:33;30.60;99.90
6518;DHT22;3292;48.944;9.240;2022-07-23T13:57:09;30.70;97.60
6518;DHT22;3292;48.944;9.240;2022-07-23T13:59:50;30.70;97.90
6518;DHT22;3292;48.944;9.240;2022-07-23T14:02:18;30.70;95.90
6518;DHT22;3292;48.944;9.240;2022-07-23T14:04:52;30.60;97.60
6518;DHT22;3292;48.944;9.240;2022-07-23T14:07:44;30.70;97.30
6518;DHT22;3292;48.944;9.240;2022-07-23T14:10:30;30.80;96.30
6518;DHT22;3292;48.944;9.240;2022-07-23T14:13:05;30.80;95.30
6518;DHT22;3292;48.944;9.240;2022-07-23T14:15:37;30.90;97.50
6518;DHT22;3292;48.944;9.240;2022-07-23T14:18:09;30.90;95.70
6518;DHT22;3292;48.944;9.240;2022-07-23T14:20:39;30.90;94.80
6518;DHT22;3292;48.944;9.240;2022-07-23T14:23:15;31.00;95.70
6518;DHT22;3292;48.944;9.240;2022-07-23T14:25:43;31.10;95.60
6518;DHT22;3292;48.944;9.240;2022-07-23T14:28:13;31.20;95.50
6518;DHT22;3292;48.944;9.240;2022-07-23T14:31:01;31.00;95.50
6518;DHT22;3292;48.944;9.240;2022-07-23T14:33:33;31.10;95.80
6518;DHT22;3292;48.944;9.240;2022-07-23T14:36:14;31.20;94.80
6518;DHT22;3292;48.944;9.240;2022-07-23T14:38:47;31.30;96.00
6518;DHT22;3292;48.944;9.240;2022-07-23T14:41:14;31.40;94.90
6518;DHT22;3292;48.944;9.240;2022-07-23T14:43:41;31.30;95.60
6518;DHT22;3292;48.944;9.240;2022-07-23T14:46:08;31.20;95.80
6518;DHT22;3292;48.944;9.240;2022-07-23T14:48:37;31.30;95.60
6518;DHT22;3292;48.944;9.240;2022-07-23T14:51:07;31.20;95.20
6518;DHT22;3292;48.944;9.240;2022-07-23T14:53:33;31.10;93.70
6518;DHT22;3292;48.944;9.240;2022-07-23T14:56:02;31.20;95.30
6518;DHT22;3292;48.944;9.240;2022-07-23T14:58:31;31.10;93.20
6518;DHT22;3292;48.944;9.240;2022-07-23T15:01:01;31.10;94.40
6518;DHT22;3292;48.944;9.240;2022-07-23T15:03:37;31.00;93.40
6518;DHT22;3292;48.944;9.240;2022-07-23T15:06:25;30.90;93.60
6518;DHT22;3292;48.944;9.240;2022-07-23T15:08:59;30.50;94.20
6518;DHT22;3292;48.944;9.240;2022-07-23T15:11:43;30.30;94.70
6518;DHT22;3292;48.944;9.240;2022-07-23T15:14:15;30.20;95.60
6518;DHT22;3292;48.944;9.240;2022-07-23T15:16:54;30.00;95.60
6518;DHT22;3292;48.944;9.240;2022-07-23T15:19:23;29.80;95.90
6518;DHT22;3292;48.944;9.240;2022-07-23T15:21:53;29.80;96.80
6518;DHT22;3292;48.944;9.240;2022-07-23T15:24:20;29.80;95.90
6518;DHT22;3292;48.944;9.240;2022-07-23T15:26:52;29.70;96.50
6518;DHT22;3292;48.944;9.240;2022-07-23T15:29:36;29.80;96.40
6518;DHT22;3292;48.944;9.240;2022-07-23T15:32:05;29.80;95.90
6518;DHT22;3292;48.944;9.240;2022-07-23T15:34:35;29.80;96.40
6518;DHT22;3292;48.944;9.240;2022-07-23T15:37:10;29.60;97.30
6518;DHT22;3292;48.944;9.240;2022-07-23T15:39:43;29.50;97.50
6518;DHT22;3292;48.944;9.240;2022-07-23T15:42:14;29.40;97.60
6518;DHT22;3292;48.944;9.240;2022-07-23T15:44:42;29.30;97.30
6518;DHT22;3292;48.944;9.240;2022-07-23T15:47:12;29.20;97.70
6518;DHT22;3292;48.944;9.240;2022-07-23T15:49:47;29.20;97.90
6518;DHT22;3292;48.944;9.240;2022-07-23T15:52:24;29.10;97.40
6518;DHT22;3292;48.944;9.240;2022-07-23T15:54:55;29.10;99.00
6518;DHT22;3292;48.944;9.240;2022-07-23T15:57:36;29.20;98.50
6518;DHT22;3292;48.944;9.240;2022-07-23T16:00:07;29.30;98.50
6518;DHT22;3292;48.944;9.240;2022-07-23T16:02:49;29.50;97.60
6518;DHT22;3292;48.944;9.240;2022-07-23T16:05:17;29.60;97.70
6518;DHT22;3292;48.944;9.240;2022-07-23T16:08:12;29.70;97.60
6518;DHT22;3292;48.944;9.240;2022-07-23T16:10:40;29.70;97.50
6518;DHT22;3292;48.944;9.240;2022-07-23T16:13:15;29.60;97.70
6518;DHT22;3292;48.944;9.240;2022-07-23T16:15:48;29.70;97.60
6518;DHT22;3292;48.944;9.240;2022-07-23T16:18:21;29.60;97.70
6518;DHT22;3292;48.944;9.240;2022-07-23T16:20:51;29.60;97.50
6518;DHT22;3292;48.944;9.240;2022-07-23T16:23:18;29.60;97.50
6518;DHT22;3292;48.944;9.240;2022-07-23T16:25:52;29.50;97.80
6518;DHT22;3292;48.944;9.240;2022-07-23T16:29:02;29.40;98.50
6518;DHT22;3292;48.944;9.240;2022-07-23T16:31:32;29.40;97.70
6518;DHT22;3292;48.944;9.240;2022-07-23T16:34:00;29.30;97.70
6518;DHT22;3292;48.944;9.240;2022-07-23T16:36:39;29.20;98.50